首页
METAR-TAF:

METAR-TAF

机场 :

喬爾盧, 土耳其

纬度: 41-08N, 经度: 027-55E, 海拔: 173米

当前天气观测

该预报发布于42分钟前的14:50 UTC
风速16节,风向
温度 28°C
湿度 42%
气压 1012 hPa
能见度10公里或以上
少量云层高于4000英尺

METAR: LTBU 181450Z 01016KT 9999 FEW040 28/14 Q1012 RMK RWY22 04013KT

时间: 18:32 (15:32 UTC)

预报

该预报发布于4小时和52分钟前的10:40 UTC
预报有效从18日的 12点(UTC)到 19日的 12点(UTC)
风速15节,风向
能见度10公里或以上
散云层高于3500英尺
几率 40% :
短暂存在
从 19日的 00点(UTC)到 19日的 04点(UTC)
少量云层高于2000英尺, 积雨云.
多云层高于2500英尺
小阵雨
成为
从 19日的 07点(UTC)到 19日的 10点(UTC)
能见度10公里或以上
1500米以下无云,无积雨云

TAF: LTBU 181040Z 1812/1912 01015KT 9999 SCT035 PROB40 TEMPO 1900/1904 -SHRA FEW020CB BKN025 BECMG 1907/1910 CAVOK

超过4000个机场的气象观测和天气预报(METAR&TAF报告)。

可查询的气象台以黄色和红色小点在地图上表示。

将鼠标移到小点上方,可查看气象台名称。

然后点击查看天气观测和预报。

如需切换地图:点击带黑十字的绿色按钮放大地图;点击带横线的绿色按钮缩小地图;或者点击绿色箭头查看邻近地区的地图。


METAR-TAF: